createdAt,value
2023-05-09T00:00:06.201Z,75.17
2023-05-09T00:05:09.823Z,75.38
2023-05-09T00:10:11.185Z,75.43
2023-05-09T00:15:13.005Z,75.69
2023-05-09T00:20:14.624Z,75.67
2023-05-09T00:25:16.183Z,75.70
2023-05-09T00:30:17.708Z,75.97
2023-05-09T00:35:19.338Z,76.48
2023-05-09T00:40:20.721Z,76.38
2023-05-09T00:45:22.056Z,76.32
2023-05-09T00:50:26.203Z,76.20
2023-05-09T00:55:27.649Z,76.50
2023-05-09T01:00:29.417Z,76.50
2023-05-09T01:05:43.619Z,76.55
2023-05-09T01:11:03.993Z,76.56
2023-05-09T01:16:29.581Z,76.68
2023-05-09T01:21:32.315Z,76.90
2023-05-09T01:26:43.165Z,76.85
2023-05-09T01:31:46.158Z,76.84
2023-05-09T01:36:51.084Z,77.04
2023-05-09T01:41:55.084Z,77.22
2023-05-09T01:46:58.878Z,76.67
2023-05-09T01:52:03.606Z,76.46
2023-05-09T01:57:07.608Z,76.30
2023-05-09T02:02:09.665Z,76.61
2023-05-09T02:07:12.628Z,76.46
2023-05-09T02:12:13.987Z,76.46
2023-05-09T02:17:16.938Z,76.45
2023-05-09T02:22:18.292Z,76.72
2023-05-09T02:27:21.435Z,77.03
2023-05-09T02:32:26.928Z,76.91
2023-05-09T02:37:28.851Z,76.76
2023-05-09T02:42:30.423Z,76.80
2023-05-09T02:47:31.912Z,77.14
2023-05-09T02:52:33.289Z,77.04
2023-05-09T02:57:34.533Z,77.12
2023-05-09T03:02:36.980Z,77.15
2023-05-09T03:07:38.376Z,77.01
2023-05-09T03:12:40.211Z,77.42
2023-05-09T03:17:41.699Z,77.16
2023-05-09T03:22:43.052Z,77.46
2023-05-09T03:27:44.334Z,77.34
2023-05-09T03:32:45.722Z,77.79
2023-05-09T03:37:47.124Z,77.29
2023-05-09T03:42:48.454Z,77.16
2023-05-09T03:47:49.917Z,76.94
2023-05-09T03:52:51.327Z,76.99
2023-05-09T03:57:52.681Z,77.73
2023-05-09T04:02:54.057Z,77.06
2023-05-09T04:07:55.520Z,76.95
2023-05-09T04:12:56.956Z,77.25
2023-05-09T04:17:58.331Z,76.48
2023-05-09T04:22:59.993Z,77.15
2023-05-09T04:28:01.625Z,76.67
2023-05-09T04:33:03.141Z,76.39
2023-05-09T04:38:04.865Z,76.43
2023-05-09T04:43:06.306Z,76.49
2023-05-09T04:48:07.853Z,76.50
2023-05-09T04:53:09.382Z,76.81
2023-05-09T04:58:10.783Z,77.30
2023-05-09T05:03:12.807Z,76.99
2023-05-09T05:08:14.176Z,77.04
2023-05-09T05:13:16.196Z,77.10
2023-05-09T05:18:17.906Z,77.17
2023-05-09T05:23:19.401Z,76.93
2023-05-09T05:28:20.868Z,76.88
2023-05-09T05:33:22.156Z,76.58
2023-05-09T05:38:23.577Z,76.85
2023-05-09T05:43:24.904Z,76.48
2023-05-09T05:48:26.603Z,76.13
2023-05-09T05:53:28.063Z,75.74
2023-05-09T05:58:29.413Z,75.97
2023-05-09T06:03:30.852Z,75.96
2023-05-09T06:08:32.437Z,76.06
2023-05-09T06:13:33.807Z,75.18
2023-05-09T06:18:37.592Z,74.10
2023-05-09T06:23:42.643Z,73.62
2023-05-09T06:28:52.171Z,73.23
2023-05-09T06:33:53.505Z,71.77
2023-05-09T06:38:54.813Z,71.67
2023-05-09T06:43:56.181Z,71.44
2023-05-09T06:48:57.601Z,71.29
2023-05-09T06:53:58.990Z,70.74
2023-05-09T06:59:00.436Z,71.17
2023-05-09T07:04:01.750Z,70.26
2023-05-09T07:09:04.228Z,69.81
2023-05-09T07:14:05.862Z,69.13
2023-05-09T07:19:07.205Z,69.14
2023-05-09T07:24:08.691Z,69.35
2023-05-09T07:29:10.137Z,68.98
2023-05-09T07:34:11.907Z,68.11
2023-05-09T07:39:13.251Z,67.51
2023-05-09T07:44:14.605Z,67.50
2023-05-09T07:49:15.931Z,68.24
2023-05-09T07:54:17.411Z,68.51
2023-05-09T07:59:19.279Z,68.54
2023-05-09T08:04:20.740Z,68.34
2023-05-09T08:09:22.321Z,68.39
2023-05-09T08:14:24.043Z,68.49
2023-05-09T08:19:26.363Z,68.73
2023-05-09T08:24:27.855Z,68.95
2023-05-09T08:29:29.735Z,68.86
2023-05-09T08:34:34.384Z,69.11
2023-05-09T08:39:35.920Z,68.94
2023-05-09T08:44:37.305Z,68.98
2023-05-09T08:49:40.010Z,68.93
2023-05-09T08:54:41.605Z,68.92
2023-05-09T08:59:43.516Z,68.88
2023-05-09T09:04:45.190Z,68.80
2023-05-09T09:09:48.728Z,68.17
2023-05-09T09:14:55.010Z,68.19
2023-05-09T09:20:00.658Z,68.19
2023-05-09T09:25:03.934Z,68.55
2023-05-09T09:30:09.978Z,68.21
2023-05-09T09:35:11.907Z,68.25
2023-05-09T09:40:14.461Z,69.14
2023-05-09T09:45:19.016Z,69.21
2023-05-09T09:50:23.152Z,69.50
2023-05-09T09:55:24.908Z,69.50
2023-05-09T10:00:27.940Z,69.21
2023-05-09T10:05:30.815Z,69.26
2023-05-09T10:10:34.239Z,69.46
2023-05-09T10:15:49.286Z,69.12
2023-05-09T10:20:54.908Z,68.91
2023-05-09T10:26:23.506Z,69.76
2023-05-09T10:31:31.468Z,70.56
2023-05-09T10:36:33.067Z,72.03
2023-05-09T10:41:36.911Z,72.60
2023-05-09T10:46:38.988Z,71.03
2023-05-09T10:51:40.500Z,69.81
2023-05-09T10:56:42.045Z,68.89
2023-05-09T11:01:43.384Z,67.40
2023-05-09T11:06:51.131Z,66.49
2023-05-09T11:11:57.532Z,68.09
2023-05-09T11:17:00.729Z,72.28
2023-05-09T11:22:10.978Z,73.19
2023-05-09T11:27:49.669Z,73.36
2023-05-09T11:32:55.930Z,73.09
2023-05-09T11:38:02.088Z,73.36
2023-05-09T11:43:03.457Z,72.95
2023-05-09T11:48:09.154Z,72.58
2023-05-09T11:53:12.327Z,72.26
2023-05-09T11:58:13.838Z,71.83
2023-05-09T12:03:15.348Z,72.30
2023-05-09T12:08:16.759Z,72.55
2023-05-09T12:13:19.290Z,72.02
2023-05-09T12:18:20.763Z,71.28
2023-05-09T12:23:23.345Z,69.56
2023-05-09T12:28:26.428Z,68.62
2023-05-09T12:33:28.238Z,68.62
2023-05-09T12:38:29.613Z,68.83
2023-05-09T12:43:36.059Z,68.62
2023-05-09T12:48:38.613Z,68.92
2023-05-09T12:53:41.499Z,67.81
2023-05-09T12:58:51.626Z,67.76
2023-05-09T13:04:02.265Z,68.50
2023-05-09T13:09:06.002Z,70.70
2023-05-09T13:14:08.324Z,70.79
2023-05-09T13:19:10.253Z,71.69
2023-05-09T13:24:11.614Z,71.62
2023-05-09T13:29:13.007Z,71.60
2023-05-09T13:34:14.344Z,72.58
2023-05-09T13:39:16.523Z,72.74
2023-05-09T13:44:18.178Z,72.40
2023-05-09T13:49:20.048Z,72.89
2023-05-09T13:54:22.862Z,73.14
2023-05-09T13:59:24.302Z,72.64
2023-05-09T14:04:31.747Z,73.52
2023-05-09T14:09:38.085Z,73.60
2023-05-09T14:14:39.446Z,73.92
2023-05-09T14:19:40.800Z,74.15
2023-05-09T14:24:42.220Z,74.38
2023-05-09T14:29:44.074Z,75.36
2023-05-09T14:34:45.811Z,76.21
2023-05-09T14:39:47.563Z,76.51
2023-05-09T14:44:48.920Z,76.12
2023-05-09T14:49:50.203Z,76.53
2023-05-09T14:54:51.556Z,76.75
2023-05-09T14:59:53.006Z,77.18
2023-05-09T15:04:55.869Z,77.89
2023-05-09T15:09:57.492Z,78.58
2023-05-09T15:15:12.724Z,78.39
2023-05-09T15:20:15.430Z,78.62
2023-05-09T15:25:17.264Z,79.96
2023-05-09T15:30:18.706Z,80.85
2023-05-09T15:35:20.181Z,81.51
2023-05-09T15:40:21.812Z,82.57
2023-05-09T15:45:23.176Z,83.95
2023-05-09T15:50:24.530Z,85.40
2023-05-09T15:55:28.530Z,88.93
2023-05-09T16:00:30.112Z,86.80
2023-05-09T16:05:31.518Z,88.81
2023-05-09T16:10:32.980Z,91.55
2023-05-09T16:15:34.973Z,91.98
2023-05-09T16:20:36.820Z,91.21
2023-05-09T16:25:38.266Z,91.75
2023-05-09T16:30:39.955Z,92.02
2023-05-09T16:35:41.402Z,91.79
2023-05-09T16:40:42.753Z,92.27
2023-05-09T16:45:44.291Z,93.03
2023-05-09T16:50:46.606Z,92.07
2023-05-09T16:55:48.403Z,91.91
2023-05-09T17:00:50.658Z,93.56
2023-05-09T17:05:51.993Z,93.88
2023-05-09T17:10:53.640Z,94.37
2023-05-09T17:15:54.926Z,95.22
2023-05-09T17:20:56.626Z,95.29
2023-05-09T17:25:58.129Z,93.77
2023-05-09T17:30:59.617Z,95.62
2023-05-09T17:36:01.471Z,94.77
2023-05-09T17:41:02.825Z,94.42
2023-05-09T17:46:04.736Z,95.09
2023-05-09T17:51:06.127Z,95.67
2023-05-09T17:56:07.650Z,95.34
2023-05-09T18:01:09.509Z,93.94
2023-05-09T18:06:10.866Z,94.69
2023-05-09T18:11:12.369Z,94.56
2023-05-09T18:16:13.818Z,90.63
2023-05-09T18:21:15.218Z,90.55
2023-05-09T18:26:17.242Z,90.69
2023-05-09T18:31:18.982Z,91.67
2023-05-09T18:36:20.582Z,89.73
2023-05-09T18:41:21.997Z,92.47
2023-05-09T18:46:23.448Z,93.14
2023-05-09T18:51:25.600Z,93.40
2023-05-09T18:56:26.944Z,93.64
2023-05-09T19:01:28.380Z,92.21
2023-05-09T19:06:29.801Z,92.59
2023-05-09T19:11:31.554Z,92.50
2023-05-09T19:16:32.945Z,93.25
2023-05-09T19:21:35.509Z,93.69
2023-05-09T19:26:36.869Z,91.07
2023-05-09T19:31:38.208Z,92.04
2023-05-09T19:36:39.689Z,91.42
2023-05-09T19:41:41.345Z,92.88
2023-05-09T19:46:43.066Z,95.48
2023-05-09T19:51:44.498Z,94.06
2023-05-09T19:56:45.819Z,95.25
2023-05-09T20:01:47.188Z,97.30
2023-05-09T20:06:49.017Z,95.94
2023-05-09T20:11:50.593Z,97.34
2023-05-09T20:16:51.937Z,95.87
2023-05-09T20:21:53.885Z,96.57
2023-05-09T20:26:55.347Z,96.85
2023-05-09T20:31:56.982Z,96.32
2023-05-09T20:36:58.401Z,98.00
2023-05-09T20:42:02.126Z,97.19
2023-05-09T20:47:03.528Z,98.42
2023-05-09T20:52:04.934Z,98.79
2023-05-09T20:57:06.261Z,97.08
2023-05-09T21:02:08.237Z,96.48
2023-05-09T21:07:09.924Z,95.00
2023-05-09T21:12:11.390Z,95.88
2023-05-09T21:17:12.892Z,93.80
2023-05-09T21:22:14.188Z,95.10
2023-05-09T21:27:15.497Z,95.75
2023-05-09T21:32:16.936Z,96.30
2023-05-09T21:37:19.352Z,96.55
2023-05-09T21:42:22.876Z,97.01
2023-05-09T21:47:24.423Z,96.46
2023-05-09T21:52:26.089Z,96.95
2023-05-09T21:57:27.384Z,97.03
2023-05-09T22:02:29.352Z,97.58
2023-05-09T22:07:30.850Z,97.75
2023-05-09T22:12:32.219Z,98.23
2023-05-09T22:17:33.550Z,98.08
2023-05-09T22:22:35.061Z,98.36
2023-05-09T22:27:36.381Z,97.54
2023-05-09T22:32:38.414Z,97.99
2023-05-09T22:37:39.897Z,98.69
2023-05-09T22:42:41.211Z,98.34
2023-05-09T22:47:42.580Z,98.60
2023-05-09T22:52:44.270Z,98.49
2023-05-09T22:57:45.729Z,99.12
2023-05-09T23:02:47.225Z,99.13
2023-05-09T23:07:48.616Z,98.62
2023-05-09T23:12:50.005Z,98.83
2023-05-09T23:17:51.319Z,99.31
2023-05-09T23:22:52.755Z,98.82
2023-05-09T23:27:54.700Z,100.00
2023-05-09T23:32:56.247Z,100.00
2023-05-09T23:37:57.693Z,100.00
2023-05-09T23:42:59.047Z,100.00
2023-05-09T23:48:00.680Z,99.81
2023-05-09T23:53:04.781Z,96.56
2023-05-09T23:58:06.131Z,95.54
